sensor_id;sensor_type;location;lat;lon;timestamp;P1;durP1;ratioP1;P2;durP2;ratioP2
45686;SDS011;31399;51.176;7.776;2023-07-13T00:00:12;3.65;;;0.70;;
45686;SDS011;31399;51.176;7.776;2023-07-13T00:02:42;3.60;;;0.80;;
45686;SDS011;31399;51.176;7.776;2023-07-13T00:05:08;6.35;;;0.80;;
45686;SDS011;31399;51.176;7.776;2023-07-13T00:07:35;7.50;;;1.10;;
45686;SDS011;31399;51.176;7.776;2023-07-13T00:10:02;7.78;;;1.25;;
45686;SDS011;31399;51.176;7.776;2023-07-13T00:12:31;8.98;;;0.82;;
45686;SDS011;31399;51.176;7.776;2023-07-13T00:15:00;2.05;;;0.88;;
45686;SDS011;31399;51.176;7.776;2023-07-13T00:17:29;7.18;;;0.80;;
45686;SDS011;31399;51.176;7.776;2023-07-13T00:19:56;5.57;;;0.70;;
45686;SDS011;31399;51.176;7.776;2023-07-13T00:22:23;2.17;;;0.80;;
45686;SDS011;31399;51.176;7.776;2023-07-13T00:24:52;7.15;;;0.60;;
45686;SDS011;31399;51.176;7.776;2023-07-13T00:27:20;3.35;;;0.60;;
45686;SDS011;31399;51.176;7.776;2023-07-13T00:29:46;3.20;;;0.77;;
45686;SDS011;31399;51.176;7.776;2023-07-13T00:32:13;3.85;;;1.10;;
45686;SDS011;31399;51.176;7.776;2023-07-13T00:34:40;3.17;;;0.98;;
45686;SDS011;31399;51.176;7.776;2023-07-13T00:37:06;5.32;;;0.80;;
45686;SDS011;31399;51.176;7.776;2023-07-13T00:39:33;5.00;;;1.02;;
45686;SDS011;31399;51.176;7.776;2023-07-13T00:42:01;4.65;;;0.70;;
45686;SDS011;31399;51.176;7.776;2023-07-13T00:44:28;3.47;;;0.68;;
45686;SDS011;31399;51.176;7.776;2023-07-13T00:46:54;3.80;;;0.82;;
45686;SDS011;31399;51.176;7.776;2023-07-13T00:49:23;3.50;;;0.60;;
45686;SDS011;31399;51.176;7.776;2023-07-13T00:52:03;4.28;;;0.77;;
45686;SDS011;31399;51.176;7.776;2023-07-13T00:54:38;6.45;;;1.05;;
45686;SDS011;31399;51.176;7.776;2023-07-13T00:57:09;4.20;;;0.68;;
45686;SDS011;31399;51.176;7.776;2023-07-13T00:59:39;8.70;;;1.63;;
45686;SDS011;31399;51.176;7.776;2023-07-13T01:02:07;3.92;;;0.63;;
45686;SDS011;31399;51.176;7.776;2023-07-13T01:04:34;5.25;;;0.82;;
45686;SDS011;31399;51.176;7.776;2023-07-13T01:07:01;7.47;;;1.17;;
45686;SDS011;31399;51.176;7.776;2023-07-13T01:09:27;11.02;;;1.25;;
45686;SDS011;31399;51.176;7.776;2023-07-13T01:11:54;5.75;;;0.63;;
45686;SDS011;31399;51.176;7.776;2023-07-13T01:14:21;4.20;;;0.93;;
45686;SDS011;31399;51.176;7.776;2023-07-13T01:16:48;2.92;;;0.70;;
45686;SDS011;31399;51.176;7.776;2023-07-13T01:22:08;5.72;;;0.70;;
45686;SDS011;31399;51.176;7.776;2023-07-13T01:24:39;3.85;;;1.15;;
45686;SDS011;31399;51.176;7.776;2023-07-13T01:27:08;2.35;;;0.73;;
45686;SDS011;31399;51.176;7.776;2023-07-13T01:29:36;7.47;;;0.90;;
45686;SDS011;31399;51.176;7.776;2023-07-13T01:32:12;2.85;;;1.02;;
45686;SDS011;31399;51.176;7.776;2023-07-13T01:34:41;4.82;;;1.08;;
45686;SDS011;31399;51.176;7.776;2023-07-13T01:37:09;4.85;;;0.63;;
45686;SDS011;31399;51.176;7.776;2023-07-13T01:39:36;2.88;;;0.85;;
45686;SDS011;31399;51.176;7.776;2023-07-13T01:42:03;7.43;;;0.85;;
45686;SDS011;31399;51.176;7.776;2023-07-13T01:44:30;6.90;;;0.75;;
45686;SDS011;31399;51.176;7.776;2023-07-13T01:46:57;4.63;;;0.80;;
45686;SDS011;31399;51.176;7.776;2023-07-13T01:49:24;2.78;;;0.70;;
45686;SDS011;31399;51.176;7.776;2023-07-13T01:51:51;3.28;;;0.77;;
45686;SDS011;31399;51.176;7.776;2023-07-13T01:54:17;4.18;;;0.70;;
45686;SDS011;31399;51.176;7.776;2023-07-13T01:56:44;4.30;;;0.80;;
45686;SDS011;31399;51.176;7.776;2023-07-13T01:59:10;3.15;;;0.60;;
45686;SDS011;31399;51.176;7.776;2023-07-13T02:01:37;4.25;;;0.85;;
45686;SDS011;31399;51.176;7.776;2023-07-13T02:04:04;4.55;;;0.77;;
45686;SDS011;31399;51.176;7.776;2023-07-13T02:06:31;3.13;;;0.57;;
45686;SDS011;31399;51.176;7.776;2023-07-13T02:08:57;7.10;;;1.48;;
45686;SDS011;31399;51.176;7.776;2023-07-13T02:11:24;2.20;;;0.50;;
45686;SDS011;31399;51.176;7.776;2023-07-13T02:13:51;6.78;;;1.05;;
45686;SDS011;31399;51.176;7.776;2023-07-13T02:16:18;6.03;;;0.80;;
45686;SDS011;31399;51.176;7.776;2023-07-13T02:18:45;6.43;;;0.93;;
45686;SDS011;31399;51.176;7.776;2023-07-13T02:21:11;3.97;;;0.60;;
45686;SDS011;31399;51.176;7.776;2023-07-13T02:23:38;3.30;;;0.85;;
45686;SDS011;31399;51.176;7.776;2023-07-13T02:26:04;3.47;;;0.88;;
45686;SDS011;31399;51.176;7.776;2023-07-13T02:28:31;4.93;;;0.70;;
45686;SDS011;31399;51.176;7.776;2023-07-13T02:31:04;4.03;;;1.10;;
45686;SDS011;31399;51.176;7.776;2023-07-13T02:33:31;5.25;;;0.80;;
45686;SDS011;31399;51.176;7.776;2023-07-13T02:35:58;3.22;;;0.68;;
45686;SDS011;31399;51.176;7.776;2023-07-13T02:38:25;6.70;;;1.10;;
45686;SDS011;31399;51.176;7.776;2023-07-13T02:40:52;5.47;;;0.90;;
45686;SDS011;31399;51.176;7.776;2023-07-13T02:43:18;2.35;;;0.80;;
45686;SDS011;31399;51.176;7.776;2023-07-13T02:45:45;3.47;;;0.60;;
45686;SDS011;31399;51.176;7.776;2023-07-13T02:48:13;2.60;;;0.75;;
45686;SDS011;31399;51.176;7.776;2023-07-13T02:50:40;4.60;;;0.60;;
45686;SDS011;31399;51.176;7.776;2023-07-13T02:53:07;4.90;;;0.82;;
45686;SDS011;31399;51.176;7.776;2023-07-13T02:55:33;3.17;;;0.85;;
45686;SDS011;31399;51.176;7.776;2023-07-13T02:58:00;4.50;;;0.80;;
45686;SDS011;31399;51.176;7.776;2023-07-13T03:00:27;4.65;;;0.98;;
45686;SDS011;31399;51.176;7.776;2023-07-13T03:02:54;2.53;;;0.57;;
45686;SDS011;31399;51.176;7.776;2023-07-13T03:05:24;4.90;;;0.73;;
45686;SDS011;31399;51.176;7.776;2023-07-13T03:07:50;4.03;;;0.60;;
45686;SDS011;31399;51.176;7.776;2023-07-13T03:10:17;3.85;;;0.60;;
45686;SDS011;31399;51.176;7.776;2023-07-13T03:12:44;4.07;;;0.70;;
45686;SDS011;31399;51.176;7.776;2023-07-13T03:15:10;5.53;;;0.90;;
45686;SDS011;31399;51.176;7.776;2023-07-13T03:17:37;1.48;;;0.50;;
45686;SDS011;31399;51.176;7.776;2023-07-13T03:20:04;3.13;;;0.98;;
45686;SDS011;31399;51.176;7.776;2023-07-13T03:22:31;7.90;;;0.98;;
45686;SDS011;31399;51.176;7.776;2023-07-13T03:24:58;6.47;;;0.90;;
45686;SDS011;31399;51.176;7.776;2023-07-13T03:27:25;8.45;;;0.90;;
45686;SDS011;31399;51.176;7.776;2023-07-13T03:29:51;4.45;;;0.63;;
45686;SDS011;31399;51.176;7.776;2023-07-13T03:32:18;4.25;;;1.40;;
45686;SDS011;31399;51.176;7.776;2023-07-13T03:34:44;3.83;;;1.00;;
45686;SDS011;31399;51.176;7.776;2023-07-13T03:37:11;4.32;;;1.15;;
45686;SDS011;31399;51.176;7.776;2023-07-13T03:39:37;2.63;;;0.80;;
45686;SDS011;31399;51.176;7.776;2023-07-13T03:42:04;4.70;;;0.82;;
45686;SDS011;31399;51.176;7.776;2023-07-13T03:44:31;3.15;;;0.60;;
45686;SDS011;31399;51.176;7.776;2023-07-13T03:46:58;4.38;;;0.70;;
45686;SDS011;31399;51.176;7.776;2023-07-13T03:49:25;6.00;;;1.00;;
45686;SDS011;31399;51.176;7.776;2023-07-13T03:51:51;4.65;;;0.95;;
45686;SDS011;31399;51.176;7.776;2023-07-13T03:54:19;2.88;;;1.27;;
45686;SDS011;31399;51.176;7.776;2023-07-13T03:56:46;5.75;;;0.90;;
45686;SDS011;31399;51.176;7.776;2023-07-13T03:59:13;4.85;;;1.30;;
45686;SDS011;31399;51.176;7.776;2023-07-13T04:01:39;5.68;;;0.90;;
45686;SDS011;31399;51.176;7.776;2023-07-13T04:04:06;8.38;;;1.50;;
45686;SDS011;31399;51.176;7.776;2023-07-13T04:06:33;10.40;;;0.55;;
45686;SDS011;31399;51.176;7.776;2023-07-13T04:09:00;8.80;;;1.17;;
45686;SDS011;31399;51.176;7.776;2023-07-13T04:11:29;6.90;;;1.00;;
45686;SDS011;31399;51.176;7.776;2023-07-13T04:13:57;6.45;;;0.77;;
45686;SDS011;31399;51.176;7.776;2023-07-13T04:16:24;4.05;;;1.00;;
45686;SDS011;31399;51.176;7.776;2023-07-13T04:18:51;4.28;;;0.80;;
45686;SDS011;31399;51.176;7.776;2023-07-13T04:21:21;5.40;;;1.13;;
45686;SDS011;31399;51.176;7.776;2023-07-13T04:23:48;7.28;;;0.80;;
45686;SDS011;31399;51.176;7.776;2023-07-13T04:26:15;3.50;;;0.95;;
45686;SDS011;31399;51.176;7.776;2023-07-13T04:28:41;2.92;;;1.13;;
45686;SDS011;31399;51.176;7.776;2023-07-13T04:31:08;7.13;;;0.65;;
45686;SDS011;31399;51.176;7.776;2023-07-13T04:33:35;3.42;;;0.60;;
45686;SDS011;31399;51.176;7.776;2023-07-13T04:36:01;2.58;;;0.70;;
45686;SDS011;31399;51.176;7.776;2023-07-13T04:38:29;3.50;;;0.70;;
45686;SDS011;31399;51.176;7.776;2023-07-13T04:40:57;3.75;;;0.75;;
45686;SDS011;31399;51.176;7.776;2023-07-13T04:43:25;8.55;;;1.00;;
45686;SDS011;31399;51.176;7.776;2023-07-13T04:45:53;2.53;;;0.47;;
45686;SDS011;31399;51.176;7.776;2023-07-13T04:48:20;2.70;;;0.82;;
45686;SDS011;31399;51.176;7.776;2023-07-13T04:50:47;3.05;;;0.75;;
45686;SDS011;31399;51.176;7.776;2023-07-13T04:53:13;3.63;;;0.70;;
45686;SDS011;31399;51.176;7.776;2023-07-13T04:55:40;4.45;;;0.82;;
45686;SDS011;31399;51.176;7.776;2023-07-13T04:58:07;4.53;;;1.20;;
45686;SDS011;31399;51.176;7.776;2023-07-13T05:00:33;4.88;;;1.55;;
45686;SDS011;31399;51.176;7.776;2023-07-13T05:03:00;2.65;;;1.40;;
45686;SDS011;31399;51.176;7.776;2023-07-13T05:05:27;8.93;;;1.00;;
45686;SDS011;31399;51.176;7.776;2023-07-13T05:07:54;3.97;;;1.05;;
45686;SDS011;31399;51.176;7.776;2023-07-13T05:10:21;6.70;;;1.00;;
45686;SDS011;31399;51.176;7.776;2023-07-13T05:12:47;3.78;;;0.95;;
45686;SDS011;31399;51.176;7.776;2023-07-13T05:15:14;3.35;;;0.80;;
45686;SDS011;31399;51.176;7.776;2023-07-13T05:17:50;5.97;;;1.00;;
45686;SDS011;31399;51.176;7.776;2023-07-13T05:20:18;3.15;;;0.80;;
45686;SDS011;31399;51.176;7.776;2023-07-13T05:22:45;5.85;;;1.42;;
45686;SDS011;31399;51.176;7.776;2023-07-13T05:25:13;5.18;;;0.80;;
45686;SDS011;31399;51.176;7.776;2023-07-13T05:27:40;4.97;;;0.82;;
45686;SDS011;31399;51.176;7.776;2023-07-13T05:30:07;4.45;;;1.00;;
45686;SDS011;31399;51.176;7.776;2023-07-13T05:32:37;4.88;;;0.70;;
45686;SDS011;31399;51.176;7.776;2023-07-13T05:35:04;7.95;;;0.98;;
45686;SDS011;31399;51.176;7.776;2023-07-13T05:37:30;6.18;;;0.98;;
45686;SDS011;31399;51.176;7.776;2023-07-13T05:39:57;5.35;;;0.93;;
45686;SDS011;31399;51.176;7.776;2023-07-13T05:42:24;4.55;;;0.45;;
45686;SDS011;31399;51.176;7.776;2023-07-13T05:44:51;4.07;;;0.57;;
45686;SDS011;31399;51.176;7.776;2023-07-13T05:47:17;5.85;;;0.93;;
45686;SDS011;31399;51.176;7.776;2023-07-13T05:49:44;5.65;;;0.80;;
45686;SDS011;31399;51.176;7.776;2023-07-13T05:52:11;7.78;;;1.00;;
45686;SDS011;31399;51.176;7.776;2023-07-13T05:54:37;4.63;;;0.95;;
45686;SDS011;31399;51.176;7.776;2023-07-13T05:57:04;3.03;;;0.68;;
45686;SDS011;31399;51.176;7.776;2023-07-13T05:59:31;4.18;;;0.90;;
45686;SDS011;31399;51.176;7.776;2023-07-13T06:01:57;5.25;;;0.95;;
45686;SDS011;31399;51.176;7.776;2023-07-13T06:04:24;9.55;;;1.05;;
45686;SDS011;31399;51.176;7.776;2023-07-13T06:06:51;2.40;;;0.60;;
45686;SDS011;31399;51.176;7.776;2023-07-13T06:09:18;5.30;;;1.15;;
45686;SDS011;31399;51.176;7.776;2023-07-13T06:11:44;3.03;;;0.93;;
45686;SDS011;31399;51.176;7.776;2023-07-13T06:14:11;6.18;;;0.90;;
45686;SDS011;31399;51.176;7.776;2023-07-13T06:16:39;9.48;;;1.08;;
45686;SDS011;31399;51.176;7.776;2023-07-13T06:19:06;7.75;;;1.95;;
45686;SDS011;31399;51.176;7.776;2023-07-13T06:21:34;6.00;;;1.42;;
45686;SDS011;31399;51.176;7.776;2023-07-13T06:24:01;4.88;;;1.15;;
45686;SDS011;31399;51.176;7.776;2023-07-13T06:26:27;6.55;;;1.05;;
45686;SDS011;31399;51.176;7.776;2023-07-13T06:28:54;4.32;;;1.60;;
45686;SDS011;31399;51.176;7.776;2023-07-13T06:31:21;7.22;;;1.52;;
45686;SDS011;31399;51.176;7.776;2023-07-13T06:33:47;6.22;;;1.92;;
45686;SDS011;31399;51.176;7.776;2023-07-13T06:36:14;5.13;;;2.00;;
45686;SDS011;31399;51.176;7.776;2023-07-13T06:38:41;4.88;;;1.70;;
45686;SDS011;31399;51.176;7.776;2023-07-13T06:41:08;5.97;;;2.22;;
45686;SDS011;31399;51.176;7.776;2023-07-13T06:43:35;6.10;;;1.80;;
45686;SDS011;31399;51.176;7.776;2023-07-13T06:46:02;3.42;;;1.85;;
45686;SDS011;31399;51.176;7.776;2023-07-13T06:48:29;5.95;;;1.73;;
45686;SDS011;31399;51.176;7.776;2023-07-13T06:50:56;6.28;;;1.75;;
45686;SDS011;31399;51.176;7.776;2023-07-13T06:53:23;6.47;;;2.20;;
45686;SDS011;31399;51.176;7.776;2023-07-13T06:55:49;10.15;;;2.38;;
45686;SDS011;31399;51.176;7.776;2023-07-13T06:58:18;5.40;;;2.55;;
45686;SDS011;31399;51.176;7.776;2023-07-13T07:00:45;10.52;;;2.85;;
45686;SDS011;31399;51.176;7.776;2023-07-13T07:03:12;7.07;;;3.03;;
45686;SDS011;31399;51.176;7.776;2023-07-13T07:05:39;11.73;;;3.45;;
45686;SDS011;31399;51.176;7.776;2023-07-13T07:08:06;7.82;;;2.42;;
45686;SDS011;31399;51.176;7.776;2023-07-13T07:10:33;10.60;;;3.03;;
45686;SDS011;31399;51.176;7.776;2023-07-13T07:13:00;9.18;;;2.85;;
45686;SDS011;31399;51.176;7.776;2023-07-13T07:15:27;6.28;;;3.20;;
45686;SDS011;31399;51.176;7.776;2023-07-13T07:17:54;10.50;;;3.42;;
45686;SDS011;31399;51.176;7.776;2023-07-13T07:20:21;6.80;;;2.97;;
45686;SDS011;31399;51.176;7.776;2023-07-13T07:22:48;10.38;;;2.72;;
45686;SDS011;31399;51.176;7.776;2023-07-13T07:25:15;7.10;;;2.35;;
45686;SDS011;31399;51.176;7.776;2023-07-13T07:27:42;7.03;;;2.60;;
45686;SDS011;31399;51.176;7.776;2023-07-13T07:30:12;8.77;;;1.98;;
45686;SDS011;31399;51.176;7.776;2023-07-13T07:32:41;9.20;;;1.80;;
45686;SDS011;31399;51.176;7.776;2023-07-13T07:35:22;5.00;;;1.67;;
45686;SDS011;31399;51.176;7.776;2023-07-13T07:37:49;3.40;;;1.33;;
45686;SDS011;31399;51.176;7.776;2023-07-13T07:40:17;3.15;;;0.88;;
45686;SDS011;31399;51.176;7.776;2023-07-13T07:42:47;6.03;;;1.20;;
45686;SDS011;31399;51.176;7.776;2023-07-13T07:45:14;6.18;;;1.00;;
45686;SDS011;31399;51.176;7.776;2023-07-13T07:47:40;4.90;;;1.20;;
45686;SDS011;31399;51.176;7.776;2023-07-13T07:50:08;5.30;;;0.80;;
45686;SDS011;31399;51.176;7.776;2023-07-13T07:52:35;3.20;;;0.80;;
45686;SDS011;31399;51.176;7.776;2023-07-13T07:55:03;6.43;;;0.85;;
45686;SDS011;31399;51.176;7.776;2023-07-13T07:57:35;4.13;;;0.90;;
45686;SDS011;31399;51.176;7.776;2023-07-13T08:00:05;4.05;;;1.20;;
45686;SDS011;31399;51.176;7.776;2023-07-13T08:02:35;5.93;;;1.00;;
45686;SDS011;31399;51.176;7.776;2023-07-13T08:05:05;3.53;;;0.80;;
45686;SDS011;31399;51.176;7.776;2023-07-13T08:07:35;3.28;;;1.10;;
45686;SDS011;31399;51.176;7.776;2023-07-13T08:10:03;4.20;;;0.82;;
45686;SDS011;31399;51.176;7.776;2023-07-13T08:12:37;4.65;;;1.20;;
45686;SDS011;31399;51.176;7.776;2023-07-13T08:15:09;2.20;;;0.70;;
45686;SDS011;31399;51.176;7.776;2023-07-13T08:17:37;3.47;;;0.80;;
45686;SDS011;31399;51.176;7.776;2023-07-13T08:20:04;5.60;;;1.15;;
45686;SDS011;31399;51.176;7.776;2023-07-13T08:22:31;2.67;;;0.82;;
45686;SDS011;31399;51.176;7.776;2023-07-13T08:24:59;6.45;;;1.10;;
45686;SDS011;31399;51.176;7.776;2023-07-13T08:27:26;4.03;;;1.17;;
45686;SDS011;31399;51.176;7.776;2023-07-13T08:29:54;4.75;;;1.05;;
45686;SDS011;31399;51.176;7.776;2023-07-13T08:32:21;2.58;;;0.60;;
45686;SDS011;31399;51.176;7.776;2023-07-13T08:34:49;2.92;;;0.70;;
45686;SDS011;31399;51.176;7.776;2023-07-13T08:37:16;2.05;;;0.90;;
45686;SDS011;31399;51.176;7.776;2023-07-13T08:39:43;3.83;;;0.60;;
45686;SDS011;31399;51.176;7.776;2023-07-13T08:47:52;3.92;;;0.77;;
45686;SDS011;31399;51.176;7.776;2023-07-13T08:50:22;3.15;;;0.75;;
45686;SDS011;31399;51.176;7.776;2023-07-13T08:52:52;4.57;;;1.20;;
45686;SDS011;31399;51.176;7.776;2023-07-13T08:55:22;4.82;;;0.90;;
45686;SDS011;31399;51.176;7.776;2023-07-13T09:03:22;4.75;;;0.85;;
45686;SDS011;31399;51.176;7.776;2023-07-13T09:05:52;4.43;;;0.70;;
45686;SDS011;31399;51.176;7.776;2023-07-13T09:08:31;4.78;;;0.88;;
45686;SDS011;31399;51.176;7.776;2023-07-13T09:11:27;2.85;;;0.82;;
45686;SDS011;31399;51.176;7.776;2023-07-13T09:14:05;5.18;;;1.05;;
45686;SDS011;31399;51.176;7.776;2023-07-13T09:16:41;4.20;;;0.85;;
45686;SDS011;31399;51.176;7.776;2023-07-13T09:19:11;4.47;;;1.23;;
45686;SDS011;31399;51.176;7.776;2023-07-13T09:21:42;5.13;;;0.80;;
45686;SDS011;31399;51.176;7.776;2023-07-13T09:26:49;7.00;;;1.05;;
45686;SDS011;31399;51.176;7.776;2023-07-13T09:29:20;6.70;;;0.80;;
45686;SDS011;31399;51.176;7.776;2023-07-13T09:31:52;4.00;;;1.00;;
45686;SDS011;31399;51.176;7.776;2023-07-13T09:34:20;3.33;;;0.82;;
45686;SDS011;31399;51.176;7.776;2023-07-13T09:36:47;6.55;;;1.35;;
45686;SDS011;31399;51.176;7.776;2023-07-13T09:39:14;1.75;;;0.80;;
45686;SDS011;31399;51.176;7.776;2023-07-13T09:42:33;2.10;;;0.90;;
45686;SDS011;31399;51.176;7.776;2023-07-13T09:44:55;2.75;;;1.33;;
45686;SDS011;31399;51.176;7.776;2023-07-13T09:47:26;5.30;;;0.93;;
45686;SDS011;31399;51.176;7.776;2023-07-13T09:50:00;1.88;;;0.50;;
45686;SDS011;31399;51.176;7.776;2023-07-13T09:52:50;2.80;;;0.82;;
45686;SDS011;31399;51.176;7.776;2023-07-13T09:55:23;4.55;;;0.90;;
45686;SDS011;31399;51.176;7.776;2023-07-13T09:57:54;5.07;;;1.10;;
45686;SDS011;31399;51.176;7.776;2023-07-13T10:00:22;4.78;;;0.85;;
45686;SDS011;31399;51.176;7.776;2023-07-13T10:03:00;2.90;;;0.60;;
45686;SDS011;31399;51.176;7.776;2023-07-13T10:05:27;2.38;;;0.73;;
45686;SDS011;31399;51.176;7.776;2023-07-13T10:07:53;5.35;;;1.20;;
45686;SDS011;31399;51.176;7.776;2023-07-13T10:10:22;3.28;;;0.77;;
45686;SDS011;31399;51.176;7.776;2023-07-13T10:12:49;2.00;;;0.30;;
45686;SDS011;31399;51.176;7.776;2023-07-13T10:15:18;1.70;;;0.50;;
45686;SDS011;31399;51.176;7.776;2023-07-13T10:17:50;4.47;;;0.85;;
45686;SDS011;31399;51.176;7.776;2023-07-13T10:20:17;4.05;;;0.45;;
45686;SDS011;31399;51.176;7.776;2023-07-13T10:23:02;3.47;;;0.55;;
45686;SDS011;31399;51.176;7.776;2023-07-13T10:25:33;2.67;;;0.70;;
45686;SDS011;31399;51.176;7.776;2023-07-13T10:28:25;5.17;;;0.90;;
45686;SDS011;31399;51.176;7.776;2023-07-13T10:30:53;2.90;;;0.80;;
45686;SDS011;31399;51.176;7.776;2023-07-13T10:33:22;1.75;;;0.55;;
45686;SDS011;31399;51.176;7.776;2023-07-13T10:35:49;5.10;;;0.75;;
45686;SDS011;31399;51.176;7.776;2023-07-13T10:38:19;3.17;;;0.82;;
45686;SDS011;31399;51.176;7.776;2023-07-13T10:40:58;3.10;;;0.60;;
45686;SDS011;31399;51.176;7.776;2023-07-13T10:43:28;3.90;;;0.57;;
45686;SDS011;31399;51.176;7.776;2023-07-13T10:46:04;1.63;;;0.63;;
45686;SDS011;31399;51.176;7.776;2023-07-13T10:48:32;4.30;;;0.80;;
45686;SDS011;31399;51.176;7.776;2023-07-13T10:51:00;6.00;;;1.10;;
45686;SDS011;31399;51.176;7.776;2023-07-13T10:53:28;2.72;;;0.82;;
45686;SDS011;31399;51.176;7.776;2023-07-13T10:58:39;2.22;;;0.98;;
45686;SDS011;31399;51.176;7.776;2023-07-13T11:01:10;2.28;;;1.10;;
45686;SDS011;31399;51.176;7.776;2023-07-13T11:19:08;5.95;;;0.70;;
45686;SDS011;31399;51.176;7.776;2023-07-13T11:36:22;1.90;;;0.80;;
45686;SDS011;31399;51.176;7.776;2023-07-13T11:38:38;3.25;;;0.63;;
45686;SDS011;31399;51.176;7.776;2023-07-13T11:41:10;3.00;;;1.20;;
45686;SDS011;31399;51.176;7.776;2023-07-13T11:43:53;4.03;;;1.20;;
45686;SDS011;31399;51.176;7.776;2023-07-13T11:46:24;3.45;;;1.20;;
45686;SDS011;31399;51.176;7.776;2023-07-13T11:48:52;4.07;;;1.00;;
45686;SDS011;31399;51.176;7.776;2023-07-13T11:51:21;2.35;;;0.80;;
45686;SDS011;31399;51.176;7.776;2023-07-13T11:53:49;3.75;;;0.88;;
45686;SDS011;31399;51.176;7.776;2023-07-13T11:56:17;3.70;;;1.10;;
45686;SDS011;31399;51.176;7.776;2023-07-13T11:58:44;1.92;;;0.68;;
45686;SDS011;31399;51.176;7.776;2023-07-13T12:01:20;2.63;;;0.80;;
45686;SDS011;31399;51.176;7.776;2023-07-13T12:03:49;2.67;;;0.55;;
45686;SDS011;31399;51.176;7.776;2023-07-13T12:06:32;3.78;;;0.60;;
45686;SDS011;31399;51.176;7.776;2023-07-13T12:09:08;3.97;;;0.60;;
45686;SDS011;31399;51.176;7.776;2023-07-13T12:11:42;1.40;;;0.50;;
45686;SDS011;31399;51.176;7.776;2023-07-13T12:14:13;3.53;;;0.80;;
45686;SDS011;31399;51.176;7.776;2023-07-13T12:16:45;2.67;;;0.70;;
45686;SDS011;31399;51.176;7.776;2023-07-13T12:19:23;2.63;;;0.85;;
45686;SDS011;31399;51.176;7.776;2023-07-13T12:21:53;2.92;;;0.80;;
45686;SDS011;31399;51.176;7.776;2023-07-13T12:24:21;3.33;;;1.10;;
45686;SDS011;31399;51.176;7.776;2023-07-13T12:26:53;2.42;;;0.85;;
45686;SDS011;31399;51.176;7.776;2023-07-13T12:29:24;1.38;;;0.75;;
45686;SDS011;31399;51.176;7.776;2023-07-13T12:31:51;2.55;;;1.00;;
45686;SDS011;31399;51.176;7.776;2023-07-13T12:34:20;2.85;;;1.00;;
45686;SDS011;31399;51.176;7.776;2023-07-13T12:36:51;3.28;;;0.77;;
45686;SDS011;31399;51.176;7.776;2023-07-13T12:41:47;2.75;;;0.68;;
45686;SDS011;31399;51.176;7.776;2023-07-13T12:44:23;3.87;;;0.70;;
45686;SDS011;31399;51.176;7.776;2023-07-13T12:46:56;5.60;;;0.80;;
45686;SDS011;31399;51.176;7.776;2023-07-13T12:49:32;2.53;;;0.65;;
45686;SDS011;31399;51.176;7.776;2023-07-13T12:54:38;3.92;;;0.88;;
45686;SDS011;31399;51.176;7.776;2023-07-13T12:57:16;2.10;;;0.60;;
45686;SDS011;31399;51.176;7.776;2023-07-13T12:59:44;2.70;;;0.68;;
45686;SDS011;31399;51.176;7.776;2023-07-13T13:02:22;2.90;;;0.70;;
45686;SDS011;31399;51.176;7.776;2023-07-13T13:04:52;3.92;;;0.63;;
45686;SDS011;31399;51.176;7.776;2023-07-13T13:07:21;3.35;;;0.68;;
45686;SDS011;31399;51.176;7.776;2023-07-13T13:09:49;2.65;;;0.80;;
45686;SDS011;31399;51.176;7.776;2023-07-13T13:12:16;2.47;;;0.70;;
45686;SDS011;31399;51.176;7.776;2023-07-13T13:14:46;3.55;;;0.90;;
45686;SDS011;31399;51.176;7.776;2023-07-13T13:17:29;2.58;;;0.77;;
45686;SDS011;31399;51.176;7.776;2023-07-13T13:19:58;2.85;;;0.70;;
45686;SDS011;31399;51.176;7.776;2023-07-13T13:22:26;3.90;;;0.93;;
45686;SDS011;31399;51.176;7.776;2023-07-13T13:24:53;6.00;;;0.90;;
45686;SDS011;31399;51.176;7.776;2023-07-13T13:27:21;6.10;;;1.20;;
45686;SDS011;31399;51.176;7.776;2023-07-13T13:29:51;4.40;;;1.35;;
45686;SDS011;31399;51.176;7.776;2023-07-13T13:32:19;1.55;;;0.80;;
45686;SDS011;31399;51.176;7.776;2023-07-13T13:34:47;3.40;;;0.88;;
45686;SDS011;31399;51.176;7.776;2023-07-13T13:37:23;4.07;;;0.93;;
45686;SDS011;31399;51.176;7.776;2023-07-13T13:39:53;2.67;;;0.80;;
45686;SDS011;31399;51.176;7.776;2023-07-13T13:42:34;4.40;;;1.05;;
45686;SDS011;31399;51.176;7.776;2023-07-13T13:45:01;4.05;;;0.65;;
45686;SDS011;31399;51.176;7.776;2023-07-13T13:47:30;3.78;;;1.00;;
45686;SDS011;31399;51.176;7.776;2023-07-13T13:49:59;2.17;;;0.63;;
45686;SDS011;31399;51.176;7.776;2023-07-13T13:52:27;3.47;;;0.90;;
45686;SDS011;31399;51.176;7.776;2023-07-13T13:54:54;3.08;;;1.25;;
45686;SDS011;31399;51.176;7.776;2023-07-13T13:57:23;2.00;;;0.75;;
45686;SDS011;31399;51.176;7.776;2023-07-13T13:59:55;2.33;;;0.70;;
45686;SDS011;31399;51.176;7.776;2023-07-13T14:02:26;3.30;;;1.27;;
45686;SDS011;31399;51.176;7.776;2023-07-13T14:04:56;4.30;;;0.82;;
45686;SDS011;31399;51.176;7.776;2023-07-13T14:09:56;3.08;;;0.98;;
45686;SDS011;31399;51.176;7.776;2023-07-13T14:12:24;2.35;;;0.45;;
45686;SDS011;31399;51.176;7.776;2023-07-13T14:14:55;2.85;;;1.10;;
45686;SDS011;31399;51.176;7.776;2023-07-13T14:17:25;2.92;;;0.75;;
45686;SDS011;31399;51.176;7.776;2023-07-13T14:19:54;2.67;;;0.70;;
45686;SDS011;31399;51.176;7.776;2023-07-13T14:22:24;3.78;;;1.08;;
45686;SDS011;31399;51.176;7.776;2023-07-13T14:24:52;5.45;;;1.10;;
45686;SDS011;31399;51.176;7.776;2023-07-13T14:27:20;2.45;;;0.60;;
45686;SDS011;31399;51.176;7.776;2023-07-13T14:29:53;2.03;;;0.55;;
45686;SDS011;31399;51.176;7.776;2023-07-13T14:32:20;3.28;;;0.80;;
45686;SDS011;31399;51.176;7.776;2023-07-13T14:34:47;4.18;;;0.63;;
45686;SDS011;31399;51.176;7.776;2023-07-13T14:37:14;6.68;;;0.85;;
45686;SDS011;31399;51.176;7.776;2023-07-13T14:39:45;4.03;;;1.02;;
45686;SDS011;31399;51.176;7.776;2023-07-13T14:42:13;3.92;;;0.80;;
45686;SDS011;31399;51.176;7.776;2023-07-13T14:44:40;7.80;;;1.38;;
45686;SDS011;31399;51.176;7.776;2023-07-13T14:47:07;7.43;;;0.98;;
45686;SDS011;31399;51.176;7.776;2023-07-13T14:49:35;3.38;;;0.70;;
45686;SDS011;31399;51.176;7.776;2023-07-13T14:54:39;2.70;;;0.95;;
45686;SDS011;31399;51.176;7.776;2023-07-13T14:57:11;3.35;;;1.10;;
45686;SDS011;31399;51.176;7.776;2023-07-13T14:59:39;3.72;;;1.10;;
45686;SDS011;31399;51.176;7.776;2023-07-13T15:02:40;0.90;;;0.43;;
45686;SDS011;31399;51.176;7.776;2023-07-13T15:05:17;3.95;;;0.70;;
45686;SDS011;31399;51.176;7.776;2023-07-13T15:07:46;5.38;;;1.05;;
45686;SDS011;31399;51.176;7.776;2023-07-13T15:10:17;2.92;;;0.80;;
45686;SDS011;31399;51.176;7.776;2023-07-13T15:12:45;5.53;;;0.70;;
45686;SDS011;31399;51.176;7.776;2023-07-13T15:15:12;3.78;;;0.70;;
45686;SDS011;31399;51.176;7.776;2023-07-13T15:17:46;3.33;;;0.77;;
45686;SDS011;31399;51.176;7.776;2023-07-13T15:20:33;4.88;;;0.80;;
45686;SDS011;31399;51.176;7.776;2023-07-13T15:23:02;2.47;;;0.60;;
45686;SDS011;31399;51.176;7.776;2023-07-13T15:25:29;4.70;;;0.85;;
45686;SDS011;31399;51.176;7.776;2023-07-13T15:27:59;2.65;;;0.73;;
45686;SDS011;31399;51.176;7.776;2023-07-13T15:30:29;1.83;;;0.55;;
45686;SDS011;31399;51.176;7.776;2023-07-13T15:32:57;1.33;;;0.55;;
45686;SDS011;31399;51.176;7.776;2023-07-13T15:35:27;3.42;;;0.75;;
45686;SDS011;31399;51.176;7.776;2023-07-13T15:37:54;3.28;;;0.70;;
45686;SDS011;31399;51.176;7.776;2023-07-13T15:40:21;6.82;;;1.30;;
45686;SDS011;31399;51.176;7.776;2023-07-13T15:42:51;2.50;;;0.90;;
45686;SDS011;31399;51.176;7.776;2023-07-13T15:45:21;2.78;;;0.57;;
45686;SDS011;31399;51.176;7.776;2023-07-13T15:47:49;2.03;;;0.57;;
45686;SDS011;31399;51.176;7.776;2023-07-13T15:50:17;5.00;;;0.65;;
45686;SDS011;31399;51.176;7.776;2023-07-13T15:52:48;0.93;;;0.40;;
45686;SDS011;31399;51.176;7.776;2023-07-13T15:55:18;1.73;;;0.70;;
45686;SDS011;31399;51.176;7.776;2023-07-13T15:57:50;2.28;;;0.95;;